Time;durP1;ratioP1;P1;durP2;ratioP2;P2;SDS_P1;SDS_P2;PMS_P1;PMS_P2;Temp;Humidity;BMP_temperature;BMP_pressure;BME280_temperature;BME280_humidity;BME280_pressure;Samples;Min_cycle;Max_cycle;Signal;HPM_P1;HPM_P2
2022/07/19 00:00:12;;;;;;;;;;;;;;;17.11;57.25;101459.63;5037731;28;1026;-59
2022/07/19 00:02:38;;;;;;;;;;;;;;;16.71;57.65;101450.66;5037777;28;1017;-58
2022/07/19 00:05:03;;;;;;;;;;;;;;;16.58;57.34;101446.41;5019836;28;995;-58
2022/07/19 00:07:29;;;;;;;;;;;;;;;16.50;57.17;101457.84;5033506;28;1430;-58
2022/07/19 00:09:54;;;;;;;;;;;;;;;16.43;56.77;101463.50;5032975;28;1149;-59
2022/07/19 00:12:20;;;;;;;;;;;;;;;16.36;56.94;101464.81;5027072;28;903;-58
2022/07/19 00:14:45;;;;;;;;;;;;;;;16.33;56.77;101463.41;5034844;28;1161;-59
2022/07/19 00:17:10;;;;;;;;;;;;;;;16.23;56.56;101457.78;5038308;28;1974;-56
2022/07/19 00:19:36;;;;;;;;;;;;;;;16.20;56.48;101458.28;5037695;28;1121;-57
2022/07/19 00:22:01;;;;;;;;;;;;;;;17.05;57.16;101450.47;5037972;28;1222;-58
2022/07/19 00:24:27;;;;;;;;;;;;;;;17.17;57.38;101446.75;5007645;28;998;-57
2022/07/19 00:26:52;;;;;;;;;;;;;;;16.74;57.60;101441.91;5036227;28;1093;-58
2022/07/19 00:29:18;;;;;;;;;;;;;;;16.58;57.47;101438.16;5019498;28;1294;-58
2022/07/19 00:31:43;;;;;;;;;;;;;;;16.45;57.28;101443.22;5051827;28;1259;-58
2022/07/19 00:34:09;;;;;;;;;;;;;;;16.46;56.90;101444.88;5041937;28;1164;-58
2022/07/19 00:36:34;;;;;;;;;;;;;;;16.41;56.68;101446.47;5037713;28;1003;-58
2022/07/19 00:38:59;;;;;;;;;;;;;;;16.29;56.81;101453.19;5037402;28;1910;-58
2022/07/19 00:41:25;;;;;;;;;;;;;;;16.24;56.83;101449.28;5036912;28;1156;-58
2022/07/19 00:43:51;;;;;;;;;;;;;;;17.50;56.78;101442.91;5037534;28;1307;-57
2022/07/19 00:46:17;;;;;;;;;;;;;;;17.02;57.59;101447.44;5037522;28;1093;-58
2022/07/19 00:48:42;;;;;;;;;;;;;;;16.76;57.59;101431.50;5024685;28;1117;-58
2022/07/19 00:51:08;;;;;;;;;;;;;;;16.61;57.23;101447.81;5035899;28;1172;-58
2022/07/19 00:53:35;;;;;;;;;;;;;;;16.51;57.17;101436.69;5037256;28;1140;-58
2022/07/19 00:56:00;;;;;;;;;;;;;;;16.39;57.03;101440.41;5019638;28;1176;-58
2022/07/19 00:58:26;;;;;;;;;;;;;;;16.37;56.92;101447.25;5036851;28;1910;-58
2022/07/19 01:00:51;;;;;;;;;;;;;;;16.31;56.73;101440.84;5005752;28;1239;-59
2022/07/19 01:03:17;;;;;;;;;;;;;;;16.29;56.39;101440.28;5037084;28;1148;-58
2022/07/19 01:05:43;;;;;;;;;;;;;;;16.26;56.63;101438.06;5037151;28;1124;-58
2022/07/19 01:08:09;;;;;;;;;;;;;;;16.61;57.19;101436.81;5037326;28;1199;-59
2022/07/19 01:10:34;;;;;;;;;;;;;;;17.36;56.90;101433.44;5019148;28;1097;-59
2022/07/19 01:13:00;;;;;;;;;;;;;;;16.77;57.71;101435.91;5036991;28;1232;-58
2022/07/19 01:15:25;;;;;;;;;;;;;;;16.60;57.45;101435.16;5036978;28;1219;-59
2022/07/19 01:17:51;;;;;;;;;;;;;;;16.53;57.21;101429.03;5036555;28;1979;-59
2022/07/19 01:20:16;;;;;;;;;;;;;;;16.44;57.04;101431.41;5036956;28;1211;-58
2022/07/19 01:22:42;;;;;;;;;;;;;;;16.38;56.73;101430.53;5036653;28;1164;-59
2022/07/19 01:25:08;;;;;;;;;;;;;;;16.30;56.76;101433.72;5023177;28;1109;-58
2022/07/19 01:27:40;;;;;;;;;;;;;;;17.49;56.68;101437.66;5018666;28;1124;-59
2022/07/19 01:30:15;;;;;;;;;;;;;;;17.03;57.63;101435.38;5019015;28;1164;-58
2022/07/19 01:32:41;;;;;;;;;;;;;;;16.73;57.76;101440.25;5036783;28;1203;-58
2022/07/19 01:35:07;;;;;;;;;;;;;;;16.60;57.22;101435.97;5045058;28;1192;-58
2022/07/19 01:37:33;;;;;;;;;;;;;;;16.52;57.30;101441.09;5023083;28;1902;-58
2022/07/19 01:39:58;;;;;;;;;;;;;;;16.40;57.12;101439.31;5036222;28;1203;-59
2022/07/19 01:42:24;;;;;;;;;;;;;;;16.33;56.96;101435.13;5036315;28;1259;-58
2022/07/19 01:44:50;;;;;;;;;;;;;;;16.31;56.79;101443.59;5036687;28;1156;-58
2022/07/19 01:47:15;;;;;;;;;;;;;;;16.26;56.45;101440.81;5035769;28;1227;-58
2022/07/19 01:49:41;;;;;;;;;;;;;;;16.22;56.68;101436.91;5022981;28;1152;-58
2022/07/19 01:52:07;;;;;;;;;;;;;;;16.92;57.04;101428.94;5036106;28;1148;-58
2022/07/19 01:54:32;;;;;;;;;;;;;;;17.16;57.21;101434.09;5036668;28;1105;-59
2022/07/19 01:56:58;;;;;;;;;;;;;;;16.77;57.74;101435.06;5036237;28;1902;-59
2022/07/19 01:59:24;;;;;;;;;;;;;;;16.60;57.36;101426.91;5033192;28;1223;-58
2022/07/19 02:01:49;;;;;;;;;;;;;;;16.50;57.25;101424.88;5025162;28;1223;-59
2022/07/19 02:04:14;;;;;;;;;;;;;;;16.41;56.99;101424.53;5036137;28;1480;-58
2022/07/19 02:06:40;;;;;;;;;;;;;;;16.37;57.00;101425.31;5036336;28;1156;-58
2022/07/19 02:09:05;;;;;;;;;;;;;;;16.25;57.01;101417.19;5036236;28;1183;-58
2022/07/19 02:11:37;;;;;;;;;;;;;;;16.23;56.75;101417.44;5045089;28;1140;-58
2022/07/19 02:14:06;;;;;;;;;;;;;;;16.47;57.06;101427.34;5027372;28;1226;-58
2022/07/19 02:16:32;;;;;;;;;;;;;;;17.48;56.55;101419.50;5036060;28;1215;-59
2022/07/19 02:18:57;;;;;;;;;;;;;;;16.88;57.73;101431.34;5035960;28;1913;-57
2022/07/19 02:21:23;;;;;;;;;;;;;;;16.65;57.52;101429.72;5037499;28;1140;-59
2022/07/19 02:23:48;;;;;;;;;;;;;;;16.54;57.25;101431.53;5048388;28;1177;-59
2022/07/19 02:26:13;;;;;;;;;;;;;;;16.42;57.20;101426.19;5022381;28;1172;-58
2022/07/19 02:28:39;;;;;;;;;;;;;;;16.40;56.81;101425.59;5035327;28;1109;-58
2022/07/19 02:31:04;;;;;;;;;;;;;;;16.36;56.74;101427.19;5036082;28;1148;-58
2022/07/19 02:33:30;;;;;;;;;;;;;;;16.28;56.56;101426.81;5035832;28;1180;-58
2022/07/19 02:35:56;;;;;;;;;;;;;;;16.36;57.11;101435.44;5042522;28;1196;-58
2022/07/19 02:38:21;;;;;;;;;;;;;;;17.52;56.37;101426.97;5038419;28;1906;-58
2022/07/19 02:40:46;;;;;;;;;;;;;;;16.89;57.63;101433.03;5038345;28;1171;-59
2022/07/19 02:43:12;;;;;;;;;;;;;;;16.65;57.71;101426.13;5036129;28;1144;-59
2022/07/19 02:45:37;;;;;;;;;;;;;;;16.53;57.40;101429.03;5036381;28;1223;-58
2022/07/19 02:48:04;;;;;;;;;;;;;;;16.46;57.06;101436.66;5035588;28;1125;-59
2022/07/19 02:50:30;;;;;;;;;;;;;;;16.38;56.87;101436.03;5036003;28;1207;-58
2022/07/19 02:52:55;;;;;;;;;;;;;;;16.33;56.95;101435.13;5032195;28;1231;-56
2022/07/19 02:55:21;;;;;;;;;;;;;;;16.24;56.88;101445.72;5039373;28;1168;-57
2022/07/19 02:57:46;;;;;;;;;;;;;;;16.82;57.36;101434.31;5039431;28;1961;-55
2022/07/19 03:00:12;;;;;;;;;;;;;;;17.40;57.01;101438.16;5035135;28;1149;-54
2022/07/19 03:02:38;;;;;;;;;;;;;;;16.83;58.00;101442.28;5029834;28;1176;-56
2022/07/19 03:05:04;;;;;;;;;;;;;;;16.67;57.39;101441.28;5039729;28;1152;-54
2022/07/19 03:07:29;;;;;;;;;;;;;;;16.56;57.11;101450.50;5038388;28;1312;-52
2022/07/19 03:09:55;;;;;;;;;;;;;;;16.45;57.08;101448.72;5038144;28;1284;-58
2022/07/19 03:12:21;;;;;;;;;;;;;;;16.40;56.80;101453.06;5036405;28;1707;-58
2022/07/19 03:14:46;;;;;;;;;;;;;;;16.33;57.06;101452.41;5041817;28;1316;-56
2022/07/19 03:17:12;;;;;;;;;;;;;;;16.28;56.89;101455.09;5041927;28;1910;-60
2022/07/19 03:19:37;;;;;;;;;;;;;;;16.24;56.89;101445.72;5039888;28;1069;-59
2022/07/19 03:22:03;;;;;;;;;;;;;;;16.24;56.93;101448.44;5039049;28;998;-59
2022/07/19 03:24:28;;;;;;;;;;;;;;;17.51;57.00;101449.22;5040912;28;1176;-59
2022/07/19 03:26:53;;;;;;;;;;;;;;;16.97;58.02;101450.13;5038631;28;2686;-59
2022/07/19 03:29:19;;;;;;;;;;;;;;;16.71;57.87;101452.59;5039620;28;1113;-59
2022/07/19 03:31:44;;;;;;;;;;;;;;;16.56;57.62;101454.09;5038858;28;1022;-59
2022/07/19 03:34:10;;;;;;;;;;;;;;;16.43;57.72;101441.56;5038294;28;962;-60
2022/07/19 03:36:35;;;;;;;;;;;;;;;16.39;57.44;101454.13;5032677;28;910;-61
2022/07/19 03:39:01;;;;;;;;;;;;;;;16.34;57.13;101439.50;5037970;28;1978;-57
2022/07/19 03:41:26;;;;;;;;;;;;;;;16.30;56.98;101441.97;5042187;28;1148;-60
2022/07/19 03:43:51;;;;;;;;;;;;;;;16.59;57.72;101439.84;5038913;28;1060;-59
2022/07/19 03:46:19;;;;;;;;;;;;;;;17.40;57.43;101438.16;5040899;28;1163;-57
2022/07/19 03:48:44;;;;;;;;;;;;;;;16.82;58.41;101446.09;5037567;28;1077;-59
2022/07/19 03:51:10;;;;;;;;;;;;;;;16.65;57.70;101448.97;5038443;28;1089;-58
2022/07/19 03:53:35;;;;;;;;;;;;;;;16.57;57.55;101452.16;5036098;28;1593;-58
2022/07/19 03:56:01;;;;;;;;;;;;;;;16.50;57.46;101449.59;5045069;28;1170;-60
2022/07/19 03:58:26;;;;;;;;;;;;;;;16.47;57.25;101441.06;5039163;28;2144;-62
2022/07/19 04:00:53;;;;;;;;;;;;;;;16.37;56.92;101456.31;5038032;28;1005;-59
2022/07/19 04:03:18;;;;;;;;;;;;;;;16.34;56.91;101462.31;5040706;28;959;-60
2022/07/19 04:05:43;;;;;;;;;;;;;;;16.28;56.85;101457.00;5038021;28;982;-59
2022/07/19 04:08:09;;;;;;;;;;;;;;;16.28;56.55;101452.34;5037484;28;1152;-58
2022/07/19 04:10:34;;;;;;;;;;;;;;;16.21;56.90;101454.44;5037203;28;958;-61
2022/07/19 04:13:00;;;;;;;;;;;;;;;16.20;56.66;101452.78;5037939;28;1145;-58
2022/07/19 04:15:25;;;;;;;;;;;;;;;17.33;57.31;101451.28;5043999;28;1052;-60
2022/07/19 04:17:51;;;;;;;;;;;;;;;17.14;57.79;101452.75;5044611;28;1906;-59
2022/07/19 04:20:16;;;;;;;;;;;;;;;16.74;58.32;101460.31;5041822;28;994;-62
2022/07/19 04:22:42;;;;;;;;;;;;;;;16.64;57.94;101450.03;5045516;28;1006;-62
2022/07/19 04:25:07;;;;;;;;;;;;;;;16.51;57.61;101461.41;5038660;28;1053;-62
2022/07/19 04:27:33;;;;;;;;;;;;;;;16.45;57.27;101459.69;5039085;28;1926;-59
2022/07/19 04:29:58;;;;;;;;;;;;;;;16.38;57.43;101455.25;5038502;28;1382;-59
2022/07/19 04:32:24;;;;;;;;;;;;;;;16.37;57.15;101459.06;5037598;28;1137;-59
2022/07/19 04:34:49;;;;;;;;;;;;;;;16.35;57.01;101461.22;5037685;28;1076;-59
2022/07/19 04:37:15;;;;;;;;;;;;;;;16.23;56.97;101452.31;5040895;28;1922;-59
2022/07/19 04:39:40;;;;;;;;;;;;;;;16.19;57.18;101462.94;5048691;28;1129;-59
2022/07/19 04:42:06;;;;;;;;;;;;;;;16.24;57.21;101457.53;5036952;28;1053;-59
2022/07/19 04:44:31;;;;;;;;;;;;;;;17.54;57.03;101452.25;5040885;28;982;-57
2022/07/19 04:46:57;;;;;;;;;;;;;;;17.00;57.97;101466.94;5036241;28;882;-57
2022/07/19 04:49:22;;;;;;;;;;;;;;;16.75;57.87;101467.47;5041540;28;1120;-58
2022/07/19 04:51:47;;;;;;;;;;;;;;;16.62;57.75;101454.97;5040108;28;1136;-57
2022/07/19 04:54:13;;;;;;;;;;;;;;;16.52;57.73;101460.31;5038557;28;1206;-58
2022/07/19 04:56:38;;;;;;;;;;;;;;;16.41;57.72;101465.69;5037208;28;2105;-59
2022/07/19 04:59:04;;;;;;;;;;;;;;;16.38;57.29;101460.72;5036646;28;1909;-57
2022/07/19 05:01:30;;;;;;;;;;;;;;;16.39;57.01;101465.09;5045985;28;1032;-60
2022/07/19 05:03:57;;;;;;;;;;;;;;;16.33;56.96;101462.56;5043582;28;1123;-61
2022/07/19 05:06:24;;;;;;;;;;;;;;;16.30;56.90;101466.66;5043302;28;1056;-57
2022/07/19 05:08:51;;;;;;;;;;;;;;;16.26;56.79;101468.25;5042733;28;1080;-59
2022/07/19 05:11:16;;;;;;;;;;;;;;;16.23;56.88;101463.28;5039997;28;998;-58
2022/07/19 05:13:41;;;;;;;;;;;;;;;16.17;56.77;101465.13;5040555;28;1089;-56
2022/07/19 05:16:07;;;;;;;;;;;;;;;16.22;57.17;101464.34;5038106;28;1089;-61
2022/07/19 05:18:32;;;;;;;;;;;;;;;17.50;57.15;101459.41;5037444;28;1905;-59
2022/07/19 05:20:58;;;;;;;;;;;;;;;16.97;57.93;101461.97;5039160;28;1134;-59
2022/07/19 05:23:23;;;;;;;;;;;;;;;16.73;58.20;101466.88;5036227;28;1069;-60
2022/07/19 05:25:49;;;;;;;;;;;;;;;16.62;57.81;101463.22;5037600;28;1124;-58
2022/07/19 05:28:14;;;;;;;;;;;;;;;16.55;57.56;101462.53;5037665;28;994;-59
2022/07/19 05:30:41;;;;;;;;;;;;;;;16.49;57.36;101469.91;5036285;28;1121;-59
2022/07/19 05:33:06;;;;;;;;;;;;;;;16.47;57.29;101476.75;5042441;28;993;-59
2022/07/19 05:35:32;;;;;;;;;;;;;;;16.45;57.09;101470.66;5041029;28;962;-60
2022/07/19 05:37:57;;;;;;;;;;;;;;;16.35;57.14;101461.22;5040502;28;1914;-61
2022/07/19 05:40:23;;;;;;;;;;;;;;;16.34;57.22;101470.56;5036387;28;1009;-59
2022/07/19 05:42:48;;;;;;;;;;;;;;;16.28;57.18;101460.56;5043253;28;1156;-59
2022/07/19 05:45:14;;;;;;;;;;;;;;;16.28;57.03;101457.84;5032771;28;1057;-58
2022/07/19 05:47:39;;;;;;;;;;;;;;;16.30;56.66;101458.44;5037348;28;1128;-59
2022/07/19 05:50:05;;;;;;;;;;;;;;;16.25;57.01;101461.91;5037532;28;894;-59
2022/07/19 05:52:31;;;;;;;;;;;;;;;17.77;53.83;101456.56;5036307;28;1224;-59
2022/07/19 05:54:56;;;;;;;;;;;;;;;17.55;54.07;101461.34;5036374;28;1239;-59
2022/07/19 05:57:22;;;;;;;;;;;;;;;17.00;55.05;101466.09;5042257;28;1906;-61
2022/07/19 05:59:47;;;;;;;;;;;;;;;18.74;52.02;101460.06;5044737;28;962;-60
2022/07/19 06:02:13;;;;;;;;;;;;;;;14.53;62.58;101457.66;5037021;28;877;-59
2022/07/19 06:04:38;;;;;;;;;;;;;;;18.08;54.38;101451.25;5035589;28;1001;-59
2022/07/19 06:07:03;;;;;;;;;;;;;;;17.12;56.04;101452.19;5035298;28;1018;-60
2022/07/19 06:09:29;;;;;;;;;;;;;;;16.41;59.90;101462.09;5036162;28;1025;-60
2022/07/19 06:11:54;;;;;;;;;;;;;;;19.00;52.38;101458.22;5035879;28;1236;-60
2022/07/19 06:14:20;;;;;;;;;;;;;;;15.27;60.87;101458.78;5034081;28;844;-59
2022/07/19 06:16:45;;;;;;;;;;;;;;;18.04;55.74;101449.31;5017721;28;1172;-61
2022/07/19 06:19:11;;;;;;;;;;;;;;;18.40;53.70;101444.81;5037956;28;1981;-62
2022/07/19 06:21:37;;;;;;;;;;;;;;;15.31;61.21;101458.03;5035561;28;1026;-61
2022/07/19 06:24:02;;;;;;;;;;;;;;;18.45;54.81;101455.84;5038189;28;1105;-63
2022/07/19 06:26:28;;;;;;;;;;;;;;;15.64;60.78;101450.91;5037580;28;859;-62
2022/07/19 06:28:54;;;;;;;;;;;;;;;17.51;58.10;101450.03;5039522;28;1136;-60
2022/07/19 06:31:19;;;;;;;;;;;;;;;19.06;52.94;101450.78;5045182;28;1017;-61
2022/07/19 06:33:45;;;;;;;;;;;;;;;15.02;63.98;101455.31;5044883;28;939;-61
2022/07/19 06:36:11;;;;;;;;;;;;;;;18.72;54.63;101440.19;5048659;28;1156;-60
2022/07/19 06:38:36;;;;;;;;;;;;;;;16.47;59.49;101432.81;5043375;28;1910;-61
2022/07/19 06:41:02;;;;;;;;;;;;;;;16.40;59.37;101453.06;5042443;28;1175;-58
2022/07/19 06:43:27;;;;;;;;;;;;;;;18.86;54.46;101446.88;5041421;28;1061;-60
2022/07/19 06:45:53;;;;;;;;;;;;;;;14.94;62.99;101453.03;5041926;28;1112;-60
2022/07/19 06:48:18;;;;;;;;;;;;;;;17.92;57.81;101444.00;5040641;28;1069;-59
2022/07/19 06:50:43;;;;;;;;;;;;;;;17.16;58.37;101445.09;5039844;28;799;-60
2022/07/19 06:53:09;;;;;;;;;;;;;;;16.34;62.37;101448.59;5043745;28;1084;-59
2022/07/19 06:55:35;;;;;;;;;;;;;;;19.17;54.67;101457.97;5045931;28;1179;-60
2022/07/19 06:58:01;;;;;;;;;;;;;;;15.37;62.82;101448.81;5046827;28;1910;-60
2022/07/19 07:00:27;;;;;;;;;;;;;;;18.04;58.39;101452.88;5044589;28;1018;-60
2022/07/19 07:02:52;;;;;;;;;;;;;;;18.28;56.16;101452.47;5039801;28;1085;-62
2022/07/19 07:05:17;;;;;;;;;;;;;;;15.77;62.69;101448.88;5044351;28;1034;-60
2022/07/19 07:07:43;;;;;;;;;;;;;;;18.92;55.93;101464.25;5041058;28;974;-59
2022/07/19 07:10:08;;;;;;;;;;;;;;;15.88;61.96;101461.69;5041953;28;1129;-59
2022/07/19 07:12:34;;;;;;;;;;;;;;;17.40;60.33;101465.66;5039583;28;1128;-61
2022/07/19 07:14:59;;;;;;;;;;;;;;;18.88;55.37;101465.91;5041167;28;1152;-60
2022/07/19 07:17:25;;;;;;;;;;;;;;;15.15;64.48;101470.66;5048469;28;1905;-60
2022/07/19 07:19:50;;;;;;;;;;;;;;;16.94;55.67;101467.94;5042616;28;1331;-59
2022/07/19 07:22:15;;;;;;;;;;;;;;;17.12;53.26;101464.00;5040161;28;1179;-60
2022/07/19 07:24:41;;;;;;;;;;;;;;;17.15;52.43;101463.47;5038512;28;1006;-59
2022/07/19 07:27:06;;;;;;;;;;;;;;;17.13;51.72;101464.84;5045098;28;852;-60
2022/07/19 07:29:32;;;;;;;;;;;;;;;18.06;53.91;101467.22;5049186;28;1006;-60
2022/07/19 07:31:57;;;;;;;;;;;;;;;17.53;53.54;101464.38;5043280;28;1021;-59
2022/07/19 07:34:23;;;;;;;;;;;;;;;17.40;52.04;101465.66;5047134;28;1184;-60
2022/07/19 07:36:48;;;;;;;;;;;;;;;17.30;51.59;101465.53;5041564;28;1018;-62
2022/07/19 07:39:13;;;;;;;;;;;;;;;17.20;51.17;101476.47;5041351;28;1898;-59
2022/07/19 07:41:39;;;;;;;;;;;;;;;17.26;50.39;101475.41;5041401;28;1017;-58
2022/07/19 07:44:05;;;;;;;;;;;;;;;17.13;49.93;101462.94;5038445;28;1053;-62
2022/07/19 07:46:30;;;;;;;;;;;;;;;17.20;49.77;101465.47;5043660;28;1053;-61
2022/07/19 07:48:55;;;;;;;;;;;;;;;18.40;51.79;101458.56;5042524;28;1002;-61
2022/07/19 07:51:21;;;;;;;;;;;;;;;14.76;62.48;101458.69;5039977;28;890;-59
2022/07/19 07:53:46;;;;;;;;;;;;;;;18.41;55.36;101463.00;5039740;28;1267;-58
2022/07/19 07:56:12;;;;;;;;;;;;;;;17.09;58.98;101459.03;5041639;28;1033;-59
2022/07/19 07:58:37;;;;;;;;;;;;;;;16.41;60.30;101457.47;5037261;28;1965;-59
2022/07/19 08:01:02;;;;;;;;;;;;;;;18.99;55.83;101456.56;5037083;28;1046;-61
2022/07/19 08:03:28;;;;;;;;;;;;;;;15.31;63.05;101463.50;5042137;28;954;-61
2022/07/19 08:05:53;;;;;;;;;;;;;;;16.75;56.84;101446.31;5037131;28;1330;-60
2022/07/19 08:08:19;;;;;;;;;;;;;;;17.19;53.29;101458.31;5042838;28;1072;-60
2022/07/19 08:10:44;;;;;;;;;;;;;;;17.15;52.20;101451.66;5045177;28;1023;-61
2022/07/19 08:13:10;;;;;;;;;;;;;;;17.18;51.20;101448.38;5040832;28;1077;-56
2022/07/19 08:15:36;;;;;;;;;;;;;;;18.07;53.24;101433.09;5041807;28;1184;-55
2022/07/19 08:18:02;;;;;;;;;;;;;;;16.59;55.45;101448.06;5039238;28;1977;-58
2022/07/19 08:20:27;;;;;;;;;;;;;;;16.43;59.78;101436.06;5036795;28;1167;-54
2022/07/19 08:22:52;;;;;;;;;;;;;;;17.74;55.85;101443.34;5037560;28;1319;-57
2022/07/19 08:25:18;;;;;;;;;;;;;;;17.48;54.00;101441.50;5037226;28;1227;-57
2022/07/19 08:27:43;;;;;;;;;;;;;;;17.37;52.48;101444.16;5036864;28;1267;-59
2022/07/19 08:30:09;;;;;;;;;;;;;;;17.31;51.58;101445.22;5036999;28;1322;-59
2022/07/19 08:32:35;;;;;;;;;;;;;;;17.26;50.87;101445.16;5045360;28;1077;-59
2022/07/19 08:35:00;;;;;;;;;;;;;;;17.24;50.35;101439.13;5040978;28;1148;-57
2022/07/19 08:37:25;;;;;;;;;;;;;;;17.27;49.74;101452.34;5041562;28;1928;-55
2022/07/19 08:39:51;;;;;;;;;;;;;;;17.19;49.47;101439.88;5040176;28;888;-58
2022/07/19 08:42:20;;;;;;;;;;;;;;;18.16;51.13;101430.66;5020640;28;1392;-59
2022/07/19 08:44:46;;;;;;;;;;;;;;;14.71;61.42;101435.59;5036352;28;1022;-58
2022/07/19 08:47:12;;;;;;;;;;;;;;;18.39;54.94;101432.13;5019062;28;1049;-59
2022/07/19 08:49:37;;;;;;;;;;;;;;;16.77;58.38;101435.91;5029135;28;970;-58
2022/07/19 08:52:04;;;;;;;;;;;;;;;16.55;60.39;101435.94;5025358;28;888;-57
2022/07/19 08:54:29;;;;;;;;;;;;;;;19.05;54.86;101433.41;5043648;28;1188;-57
2022/07/19 08:59:39;;;;;;;;;;;;;;;16.80;55.23;101436.47;5040001;28;1113;-58
2022/07/19 09:02:04;;;;;;;;;;;;;;;17.14;52.79;101428.03;5039037;28;1037;-58
2022/07/19 09:04:30;;;;;;;;;;;;;;;17.15;51.43;101443.44;5020095;28;1108;-61
2022/07/19 09:06:56;;;;;;;;;;;;;;;17.09;50.80;101443.38;5041811;28;1174;-59
2022/07/19 09:09:23;;;;;;;;;;;;;;;17.60;52.03;101436.66;5049770;28;1466;-60
2022/07/19 09:11:50;;;;;;;;;;;;;;;17.58;52.18;101436.06;5045904;28;1451;-59
2022/07/19 09:14:28;;;;;;;;;;;;;;;17.38;50.94;101429.34;5040792;28;1238;-59
2022/07/19 09:17:01;;;;;;;;;;;;;;;17.26;50.45;101425.94;5037333;28;1033;-57
2022/07/19 09:19:26;;;;;;;;;;;;;;;17.31;49.74;101420.47;5036957;28;1910;-59
2022/07/19 09:21:55;;;;;;;;;;;;;;;17.23;49.46;101427.28;5036482;28;1144;-61
2022/07/19 09:24:21;;;;;;;;;;;;;;;18.19;51.02;101427.38;5047889;28;954;-60
2022/07/19 09:26:55;;;;;;;;;;;;;;;14.84;59.93;101433.66;5042241;28;1006;-58
2022/07/19 09:29:21;;;;;;;;;;;;;;;18.28;54.91;101435.94;5045093;28;1125;-58
2022/07/19 09:32:02;;;;;;;;;;;;;;;17.64;56.81;101428.69;5022379;28;1091;-60
2022/07/19 09:34:31;;;;;;;;;;;;;;;16.12;58.64;101434.00;5042834;28;1096;-59
2022/07/19 09:37:08;;;;;;;;;;;;;;;17.04;53.48;101432.34;5020850;28;1030;-59
2022/07/19 09:39:34;;;;;;;;;;;;;;;17.07;51.96;101428.25;5040365;28;1189;-59
2022/07/19 09:42:02;;;;;;;;;;;;;;;17.09;51.08;101443.38;5037424;28;1002;-62
2022/07/19 09:44:28;;;;;;;;;;;;;;;17.12;50.29;101433.78;5037413;28;1263;-61
2022/07/19 09:46:53;;;;;;;;;;;;;;;17.11;49.97;101432.16;5035940;28;1053;-61
2022/07/19 09:49:19;;;;;;;;;;;;;;;18.16;51.85;101433.44;5043532;28;1025;-60
2022/07/19 09:51:48;;;;;;;;;;;;;;;14.92;61.39;101438.72;5046316;28;875;-60
2022/07/19 09:54:14;;;;;;;;;;;;;;;18.47;55.13;101441.81;5040773;28;1008;-59
2022/07/19 09:56:40;;;;;;;;;;;;;;;16.36;59.88;101429.94;5040168;28;1191;-60
2022/07/19 09:59:06;;;;;;;;;;;;;;;17.29;59.58;101430.91;5039271;28;1988;-60
2022/07/19 10:01:31;;;;;;;;;;;;;;;19.14;55.15;101426.25;5047690;28;1259;-60
2022/07/19 10:04:16;;;;;;;;;;;;;;;15.12;63.40;101421.00;5044284;28;1214;-58
2022/07/19 10:06:41;;;;;;;;;;;;;;;16.98;55.31;101422.38;5044917;28;1093;-60
2022/07/19 10:09:08;;;;;;;;;;;;;;;17.18;52.66;101415.41;5042995;28;998;-60
2022/07/19 10:11:34;;;;;;;;;;;;;;;17.20;51.53;101414.06;5044808;28;1172;-61
2022/07/19 10:13:59;;;;;;;;;;;;;;;17.22;51.02;101413.81;5052221;28;959;-59
2022/07/19 10:16:42;;;;;;;;;;;;;;;17.27;50.38;101416.59;5048085;28;840;-61
2022/07/19 10:19:12;;;;;;;;;;;;;;;17.24;49.86;101417.13;5048486;28;1918;-62
2022/07/19 10:21:38;;;;;;;;;;;;;;;17.18;49.66;101418.16;5024508;28;1026;-60
2022/07/19 10:24:03;;;;;;;;;;;;;;;18.31;52.58;101421.63;5051731;28;958;-62
2022/07/19 10:26:39;;;;;;;;;;;;;;;14.59;61.25;101418.38;5050018;28;1005;-60
2022/07/19 10:29:08;;;;;;;;;;;;;;;18.21;55.67;101422.41;5049088;28;915;-61
2022/07/19 10:31:35;;;;;;;;;;;;;;;16.35;60.46;101411.81;5043126;28;1188;-62
2022/07/19 10:34:02;;;;;;;;;;;;;;;16.24;57.89;101405.38;5053178;28;939;-62
2022/07/19 10:36:34;;;;;;;;;;;;;;;18.63;55.85;101415.13;5049453;28;946;-63
2022/07/19 10:39:17;;;;;;;;;;;;;;;14.85;64.37;101408.75;5048933;28;1905;-62
2022/07/19 10:42:01;;;;;;;;;;;;;;;18.41;57.24;101405.16;5040884;28;990;-60
2022/07/19 10:44:27;;;;;;;;;;;;;;;15.69;62.62;101398.84;5041912;28;994;-61
2022/07/19 10:46:52;;;;;;;;;;;;;;;17.33;60.12;101404.53;5045012;28;1050;-59
2022/07/19 10:49:37;;;;;;;;;;;;;;;18.89;56.05;101391.22;5046036;28;1223;-59
2022/07/19 10:52:21;;;;;;;;;;;;;;;15.86;62.23;101400.78;5043336;28;1061;-60
2022/07/19 10:54:47;;;;;;;;;;;;;;;19.00;57.08;101403.09;5036524;28;1045;-61
2022/07/19 10:57:12;;;;;;;;;;;;;;;15.47;63.77;101395.25;5041576;28;1887;-62
2022/07/19 10:59:41;;;;;;;;;;;;;;;16.76;57.58;101384.81;5048102;28;1011;-61
2022/07/19 11:02:07;;;;;;;;;;;;;;;17.19;53.89;101382.16;5040703;28;994;-61
2022/07/19 11:04:36;;;;;;;;;;;;;;;17.25;52.35;101383.03;5028570;28;1132;-60
2022/07/19 11:07:20;;;;;;;;;;;;;;;17.21;51.61;101381.94;5045914;28;990;-62
2022/07/19 11:09:46;;;;;;;;;;;;;;;17.14;50.95;101381.31;5038987;28;1232;-61
2022/07/19 11:12:30;;;;;;;;;;;;;;;17.21;50.11;101379.19;5039619;28;1124;-63
2022/07/19 11:14:56;;;;;;;;;;;;;;;17.17;50.00;101378.06;5045147;28;1457;-61
2022/07/19 11:17:21;;;;;;;;;;;;;;;18.17;52.69;101373.69;5046452;28;1975;-61
2022/07/19 11:19:57;;;;;;;;;;;;;;;14.73;61.43;101377.03;5041937;28;1148;-61
2022/07/19 11:22:22;;;;;;;;;;;;;;;18.30;56.55;101371.25;5048425;28;951;-59
2022/07/19 11:24:47;;;;;;;;;;;;;;;17.22;59.11;101364.34;5046953;28;1081;-60
2022/07/19 11:27:13;;;;;;;;;;;;;;;16.14;59.79;101371.50;5044418;28;1004;-60
2022/07/19 11:29:54;;;;;;;;;;;;;;;17.12;54.11;101375.25;5024490;28;1286;-61
2022/07/19 11:32:20;;;;;;;;;;;;;;;17.15;52.10;101363.72;5043398;28;979;-60
2022/07/19 11:34:55;;;;;;;;;;;;;;;17.23;51.08;101364.06;5042816;28;1073;-60
2022/07/19 11:37:24;;;;;;;;;;;;;;;17.24;50.42;101367.66;5041209;28;1902;-60
2022/07/19 11:39:52;;;;;;;;;;;;;;;17.12;50.19;101365.06;5022210;28;1093;-61
2022/07/19 11:42:28;;;;;;;;;;;;;;;18.04;52.79;101364.00;5038960;28;1112;-59
2022/07/19 11:44:54;;;;;;;;;;;;;;;15.05;62.40;101360.88;5032028;28;1021;-60
2022/07/19 11:47:20;;;;;;;;;;;;;;;18.51;56.15;101359.47;5037551;28;951;-59
2022/07/19 11:49:46;;;;;;;;;;;;;;;16.30;60.39;101359.63;5048572;28;1010;-59
2022/07/19 11:52:11;;;;;;;;;;;;;;;16.56;60.44;101357.13;5041985;28;1069;-60
2022/07/19 11:54:38;;;;;;;;;;;;;;;18.50;56.39;101346.81;5045341;28;993;-59
2022/07/19 11:57:03;;;;;;;;;;;;;;;14.85;63.59;101355.91;5042534;28;1014;-60
2022/07/19 11:59:29;;;;;;;;;;;;;;;18.27;58.10;101351.69;5041603;28;1991;-60
2022/07/19 12:01:54;;;;;;;;;;;;;;;16.83;60.07;101339.81;5042195;28;998;-59
2022/07/19 12:04:20;;;;;;;;;;;;;;;16.51;62.24;101355.19;5039527;28;1006;-59
2022/07/19 12:06:50;;;;;;;;;;;;;;;18.90;56.66;101358.97;5040160;28;1132;-61
2022/07/19 12:09:16;;;;;;;;;;;;;;;15.19;63.75;101359.50;5037811;28;1112;-61
2022/07/19 12:11:43;;;;;;;;;;;;;;;17.75;59.51;101364.38;5041005;28;1235;-60
2022/07/19 12:14:20;;;;;;;;;;;;;;;17.31;59.36;101346.25;5046367;28;1373;-62
2022/07/19 12:16:46;;;;;;;;;;;;;;;16.11;62.18;101353.63;5045782;28;998;-60
2022/07/19 12:19:14;;;;;;;;;;;;;;;18.61;57.54;101353.97;5043282;28;1917;-61
2022/07/19 12:21:43;;;;;;;;;;;;;;;15.15;63.92;101352.84;5037910;28;990;-60
2022/07/19 12:24:18;;;;;;;;;;;;;;;17.86;60.38;101346.03;5046801;28;1076;-60
2022/07/19 12:27:02;;;;;;;;;;;;;;;17.02;60.40;101349.34;5043819;28;1018;-62
2022/07/19 12:29:37;;;;;;;;;;;;;;;16.84;62.56;101364.25;5046456;28;1192;-59
2022/07/19 12:32:02;;;;;;;;;;;;;;;18.58;57.78;101352.59;5024136;28;1089;-61
2022/07/19 12:34:28;;;;;;;;;;;;;;;15.03;65.04;101358.41;5044748;28;1152;-62
2022/07/19 12:36:53;;;;;;;;;;;;;;;18.41;59.47;101341.84;5040392;28;998;-60
2022/07/19 12:39:20;;;;;;;;;;;;;;;16.76;61.52;101345.53;5041277;28;1992;-62
2022/07/19 12:42:05;;;;;;;;;;;;;;;16.62;62.89;101333.31;5038410;28;899;-63
2022/07/19 12:44:31;;;;;;;;;;;;;;;18.58;58.01;101341.59;5039205;28;1176;-61
2022/07/19 12:46:56;;;;;;;;;;;;;;;15.02;65.40;101342.22;5037136;28;1084;-62